Time;durP1;ratioP1;P1;durP2;ratioP2;P2;SDS_P1;SDS_P2;PMS_P1;PMS_P2;Temp;Humidity;BMP_temperature;BMP_pressure;BME280_temperature;BME280_humidity;BME280_pressure;Samples;Min_cycle;Max_cycle;Signal;HPM_P1;HPM_P2
2023/08/03 00:00:08;;;;;;;3.90;1.80;;;;;;;;;;5097768;28;20028;-31
2023/08/03 00:02:35;;;;;;;2.55;1.80;;;;;;;;;;5097790;28;20020;-31
2023/08/03 00:05:04;;;;;;;4.00;2.10;;;;;;;;;;5097254;28;20040;-30
2023/08/03 00:07:31;;;;;;;7.38;2.40;;;;;;;;;;5097972;28;20119;-28
2023/08/03 00:09:58;;;;;;;5.95;2.42;;;;;;;;;;5096456;28;20024;-26
2023/08/03 00:12:24;;;;;;;4.50;1.98;;;;;;;;;;5097495;28;20031;-27
2023/08/03 00:14:51;;;;;;;2.67;2.30;;;;;;;;;;5097265;28;20052;-30
2023/08/03 00:17:17;;;;;;;3.10;2.10;;;;;;;;;;5097198;28;20023;-25
2023/08/03 00:19:43;;;;;;;4.78;2.50;;;;;;;;;;5097406;28;20477;-28
2023/08/03 00:22:10;;;;;;;6.32;1.98;;;;;;;;;;5097365;28;20082;-27
2023/08/03 00:24:36;;;;;;;2.70;2.28;;;;;;;;;;5097012;28;20020;-31
2023/08/03 00:27:02;;;;;;;4.65;2.65;;;;;;;;;;5097039;28;20024;-29
2023/08/03 00:29:28;;;;;;;3.38;2.53;;;;;;;;;;5097534;28;20032;-31
2023/08/03 00:31:55;;;;;;;2.25;2.05;;;;;;;;;;5096879;28;20359;-28
2023/08/03 00:34:21;;;;;;;6.82;2.53;;;;;;;;;;5096912;28;20032;-30
2023/08/03 00:36:47;;;;;;;2.20;1.60;;;;;;;;;;5096866;28;20032;-26
2023/08/03 00:39:13;;;;;;;3.50;1.83;;;;;;;;;;5096757;28;20056;-28
2023/08/03 00:41:39;;;;;;;2.85;1.90;;;;;;;;;;5097079;28;20024;-29
2023/08/03 00:44:05;;;;;;;4.70;2.47;;;;;;;;;;5097738;28;20020;-30
2023/08/03 00:46:31;;;;;;;2.58;1.75;;;;;;;;;;5096941;28;20095;-28
2023/08/03 00:48:58;;;;;;;3.63;2.13;;;;;;;;;;5096618;28;20032;-29
2023/08/03 00:51:24;;;;;;;3.17;2.08;;;;;;;;;;5095689;28;20024;-29
2023/08/03 00:53:50;;;;;;;4.07;2.08;;;;;;;;;;5096494;28;20024;-29
2023/08/03 00:56:16;;;;;;;2.88;1.70;;;;;;;;;;5096505;28;20032;-26
2023/08/03 00:58:42;;;;;;;3.88;2.08;;;;;;;;;;5096320;28;20119;-28
2023/08/03 01:01:08;;;;;;;2.67;1.98;;;;;;;;;;5096409;28;20020;-28
2023/08/03 01:03:35;;;;;;;3.90;2.50;;;;;;;;;;5096064;28;20379;-28
2023/08/03 01:06:01;;;;;;;4.57;2.28;;;;;;;;;;5096561;28;20058;-34
2023/08/03 01:08:27;;;;;;;2.45;1.80;;;;;;;;;;5096265;28;20472;-29
2023/08/03 01:10:53;;;;;;;3.90;2.30;;;;;;;;;;5096273;28;20024;-33
2023/08/03 01:13:20;;;;;;;2.67;2.28;;;;;;;;;;5096121;28;20020;-30
2023/08/03 01:15:46;;;;;;;5.05;2.80;;;;;;;;;;5096700;28;20028;-27
2023/08/03 01:18:13;;;;;;;3.38;1.77;;;;;;;;;;5096012;28;20024;-28
2023/08/03 01:20:40;;;;;;;2.67;1.83;;;;;;;;;;5095998;28;20051;-29
2023/08/03 01:23:06;;;;;;;2.33;1.80;;;;;;;;;;5096431;28;20028;-27
2023/08/03 01:25:33;;;;;;;4.88;2.08;;;;;;;;;;5095897;28;20016;-29
2023/08/03 01:27:59;;;;;;;3.83;1.85;;;;;;;;;;5094969;28;20082;-26
2023/08/03 01:30:26;;;;;;;3.20;2.20;;;;;;;;;;5095812;28;20038;-32
2023/08/03 01:32:52;;;;;;;2.03;1.90;;;;;;;;;;5095711;28;20093;-29
2023/08/03 01:35:18;;;;;;;4.85;1.90;;;;;;;;;;5095743;28;20023;-29
2023/08/03 01:37:44;;;;;;;2.28;1.80;;;;;;;;;;5095679;28;20478;-28
2023/08/03 01:40:11;;;;;;;2.45;1.80;;;;;;;;;;5095571;28;20032;-30
2023/08/03 01:42:37;;;;;;;4.65;1.85;;;;;;;;;;5096104;28;20347;-28
2023/08/03 01:45:06;;;;;;;2.17;1.60;;;;;;;;;;5095545;28;20027;-28
2023/08/03 01:47:32;;;;;;;4.03;2.40;;;;;;;;;;5095536;28;20350;-28
2023/08/03 01:49:58;;;;;;;2.50;1.95;;;;;;;;;;5095474;28;20105;-31
2023/08/03 01:52:25;;;;;;;2.92;2.05;;;;;;;;;;5095599;28;20058;-29
2023/08/03 01:54:51;;;;;;;2.28;1.60;;;;;;;;;;5095367;28;20058;-27
2023/08/03 01:57:17;;;;;;;2.20;1.55;;;;;;;;;;5095591;28;20020;-30
2023/08/03 01:59:44;;;;;;;3.30;2.28;;;;;;;;;;5095233;28;20024;-29
2023/08/03 02:02:10;;;;;;;2.80;2.17;;;;;;;;;;5095239;28;20482;-28
2023/08/03 02:04:37;;;;;;;2.25;1.92;;;;;;;;;;5095146;28;20055;-27
2023/08/03 02:07:10;;;;;;;3.17;1.77;;;;;;;;;;5095196;28;20048;-28
2023/08/03 02:09:36;;;;;;;4.22;2.30;;;;;;;;;;5094168;28;20109;-29
2023/08/03 02:12:03;;;;;;;3.72;1.90;;;;;;;;;;5095031;28;20443;-29
2023/08/03 02:14:29;;;;;;;1.48;1.35;;;;;;;;;;5094314;28;20047;-28
2023/08/03 02:16:56;;;;;;;3.00;1.60;;;;;;;;;;5095307;28;20465;-25
2023/08/03 02:19:22;;;;;;;3.40;2.05;;;;;;;;;;5094929;28;20161;-27
2023/08/03 02:21:48;;;;;;;3.28;1.80;;;;;;;;;;5094961;28;20080;-27
2023/08/03 02:24:14;;;;;;;3.45;1.85;;;;;;;;;;5095214;28;20459;-29
2023/08/03 02:26:40;;;;;;;3.13;1.90;;;;;;;;;;5095180;28;20035;-31
2023/08/03 02:29:06;;;;;;;2.63;1.73;;;;;;;;;;5093934;28;20085;-30
2023/08/03 02:31:32;;;;;;;4.00;1.40;;;;;;;;;;5095130;28;20103;-30
2023/08/03 02:33:58;;;;;;;3.80;1.95;;;;;;;;;;5094758;28;20051;-27
2023/08/03 02:36:24;;;;;;;2.85;1.60;;;;;;;;;;5095091;28;20032;-26
2023/08/03 02:38:51;;;;;;;5.93;2.20;;;;;;;;;;5094976;28;20144;-27
2023/08/03 02:41:17;;;;;;;3.67;1.90;;;;;;;;;;5094770;28;20028;-36
2023/08/03 02:43:43;;;;;;;1.63;1.50;;;;;;;;;;5094656;28;20016;-31
2023/08/03 02:46:09;;;;;;;3.20;1.85;;;;;;;;;;5094953;28;20073;-31
2023/08/03 02:48:35;;;;;;;2.00;1.80;;;;;;;;;;5094963;28;20024;-29
2023/08/03 02:51:01;;;;;;;2.20;2.00;;;;;;;;;;5094921;28;20020;-27
2023/08/03 02:53:27;;;;;;;2.67;1.77;;;;;;;;;;5094726;28;20024;-26
2023/08/03 02:55:53;;;;;;;2.70;2.03;;;;;;;;;;5094861;28;20400;-25
2023/08/03 02:58:19;;;;;;;2.15;1.30;;;;;;;;;;5094516;28;20344;-27
2023/08/03 03:00:46;;;;;;;2.17;1.63;;;;;;;;;;5093624;28;20100;-30
2023/08/03 03:03:12;;;;;;;2.55;1.80;;;;;;;;;;5094320;28;20050;-29
2023/08/03 03:05:39;;;;;;;3.33;2.28;;;;;;;;;;5094861;28;20063;-27
2023/08/03 03:08:05;;;;;;;4.40;2.15;;;;;;;;;;5093576;28;20467;-30
2023/08/03 03:10:31;;;;;;;1.73;1.63;;;;;;;;;;5095001;28;20032;-29
2023/08/03 03:12:58;;;;;;;1.95;1.73;;;;;;;;;;5094380;28;20024;-32
2023/08/03 03:15:24;;;;;;;2.33;2.10;;;;;;;;;;5094395;28;20043;-28
2023/08/03 03:17:50;;;;;;;2.78;1.88;;;;;;;;;;5093495;28;20443;-28
2023/08/03 03:20:16;;;;;;;1.75;1.63;;;;;;;;;;5094847;28;20032;-28
2023/08/03 03:22:42;;;;;;;2.42;1.65;;;;;;;;;;5094493;28;20101;-34
2023/08/03 03:25:08;;;;;;;1.80;1.70;;;;;;;;;;5094618;28;20019;-31
2023/08/03 03:27:34;;;;;;;2.30;1.90;;;;;;;;;;5094584;28;20020;-31
2023/08/03 03:30:01;;;;;;;3.20;2.28;;;;;;;;;;5094550;28;20047;-33
2023/08/03 03:32:27;;;;;;;2.85;2.00;;;;;;;;;;5094209;28;20462;-29
2023/08/03 03:34:53;;;;;;;4.22;2.45;;;;;;;;;;5094239;28;20024;-27
2023/08/03 03:37:19;;;;;;;2.70;2.05;;;;;;;;;;5094242;28;20054;-27
2023/08/03 03:39:45;;;;;;;3.00;1.67;;;;;;;;;;5094717;28;20031;-27
2023/08/03 03:42:11;;;;;;;2.45;1.38;;;;;;;;;;5097357;28;20095;-29
2023/08/03 03:44:37;;;;;;;4.93;1.75;;;;;;;;;;5097836;28;20035;-29
2023/08/03 03:47:04;;;;;;;1.95;1.85;;;;;;;;;;5097833;28;20036;-27
2023/08/03 03:49:30;;;;;;;2.42;1.70;;;;;;;;;;5098045;28;20350;-28
2023/08/03 03:51:56;;;;;;;3.25;2.03;;;;;;;;;;5097679;28;20031;-30
2023/08/03 03:54:22;;;;;;;2.15;1.83;;;;;;;;;;5097681;28;20409;-27
2023/08/03 03:56:48;;;;;;;1.90;1.52;;;;;;;;;;5098759;28;20123;-27
2023/08/03 03:59:14;;;;;;;2.30;1.35;;;;;;;;;;5096570;28;20028;-28
2023/08/03 04:01:41;;;;;;;2.55;1.50;;;;;;;;;;5097562;28;20410;-30
2023/08/03 04:04:07;;;;;;;2.90;1.80;;;;;;;;;;5097344;28;20048;-28
2023/08/03 04:06:33;;;;;;;2.83;2.00;;;;;;;;;;5097429;28;20020;-30
2023/08/03 04:08:59;;;;;;;2.40;1.55;;;;;;;;;;5097589;28;20024;-33
2023/08/03 04:11:25;;;;;;;3.60;2.33;;;;;;;;;;5097118;28;20042;-30
2023/08/03 04:13:51;;;;;;;2.10;1.40;;;;;;;;;;5097105;28;20103;-30
2023/08/03 04:16:17;;;;;;;3.17;1.92;;;;;;;;;;5097379;28;20024;-29
2023/08/03 04:18:43;;;;;;;2.28;1.88;;;;;;;;;;5097332;28;20028;-30
2023/08/03 04:21:09;;;;;;;6.15;1.80;;;;;;;;;;5097335;28;20116;-27
2023/08/03 04:23:35;;;;;;;2.72;1.80;;;;;;;;;;5097259;28;20021;-33
2023/08/03 04:26:02;;;;;;;2.10;1.60;;;;;;;;;;5097749;28;20024;-28
2023/08/03 04:28:28;;;;;;;3.15;2.05;;;;;;;;;;5097196;28;20375;-28
2023/08/03 04:30:54;;;;;;;2.55;1.75;;;;;;;;;;5096901;28;20024;-26
2023/08/03 04:33:20;;;;;;;2.17;1.65;;;;;;;;;;5096750;28;20448;-28
2023/08/03 04:35:46;;;;;;;3.63;1.70;;;;;;;;;;5096878;28;20020;-32
2023/08/03 04:38:12;;;;;;;1.85;1.40;;;;;;;;;;5096969;28;20119;-28
2023/08/03 04:40:38;;;;;;;2.58;1.73;;;;;;;;;;5096862;28;20035;-27
2023/08/03 04:43:05;;;;;;;2.95;1.67;;;;;;;;;;5096725;28;20491;-31
2023/08/03 04:45:31;;;;;;;2.85;2.13;;;;;;;;;;5096880;28;20053;-29
2023/08/03 04:47:57;;;;;;;2.20;1.60;;;;;;;;;;5097120;28;20388;-31
2023/08/03 04:50:23;;;;;;;2.22;1.70;;;;;;;;;;5096739;28;20028;-27
2023/08/03 04:52:49;;;;;;;2.00;1.75;;;;;;;;;;5095655;28;20026;-30
2023/08/03 04:55:15;;;;;;;5.10;1.70;;;;;;;;;;5096753;28;20024;-32
2023/08/03 04:57:41;;;;;;;2.45;1.77;;;;;;;;;;5096309;28;20057;-31
2023/08/03 05:00:08;;;;;;;2.00;1.80;;;;;;;;;;5095237;28;20028;-29
2023/08/03 05:02:34;;;;;;;1.83;1.73;;;;;;;;;;5096410;28;20024;-32
2023/08/03 05:05:00;;;;;;;3.17;1.60;;;;;;;;;;5096110;28;20107;-31
2023/08/03 05:07:27;;;;;;;1.90;1.30;;;;;;;;;;5096185;28;20038;-30
2023/08/03 05:09:54;;;;;;;1.98;1.55;;;;;;;;;;5096443;28;20027;-31
2023/08/03 05:12:20;;;;;;;2.15;1.77;;;;;;;;;;5096025;28;20020;-30
2023/08/03 05:14:46;;;;;;;2.70;1.90;;;;;;;;;;5096292;28;20028;-30
2023/08/03 05:17:12;;;;;;;1.77;1.42;;;;;;;;;;5095946;28;20039;-26
2023/08/03 05:19:38;;;;;;;2.92;1.70;;;;;;;;;;5096142;28;20107;-30
2023/08/03 05:22:04;;;;;;;1.98;1.70;;;;;;;;;;5095730;28;20126;-29
2023/08/03 05:24:30;;;;;;;2.28;1.45;;;;;;;;;;5095807;28;20024;-31
2023/08/03 05:26:57;;;;;;;1.95;1.85;;;;;;;;;;5095756;28;20070;-31
2023/08/03 05:29:23;;;;;;;4.45;1.65;;;;;;;;;;5095829;28;20038;-31
2023/08/03 05:31:49;;;;;;;1.50;1.38;;;;;;;;;;5095610;28;20024;-32
2023/08/03 05:34:16;;;;;;;2.53;1.98;;;;;;;;;;5095840;28;20034;-30
2023/08/03 05:36:42;;;;;;;2.65;2.08;;;;;;;;;;5095789;28;20028;-30
2023/08/03 05:39:09;;;;;;;2.90;1.70;;;;;;;;;;5095356;28;20471;-29
2023/08/03 05:41:35;;;;;;;1.70;1.42;;;;;;;;;;5095310;28;20436;-32
2023/08/03 05:44:02;;;;;;;3.22;1.55;;;;;;;;;;5095256;28;20032;-29
2023/08/03 05:46:32;;;;;;;2.05;1.40;;;;;;;;;;5095341;28;20350;-29
2023/08/03 05:48:58;;;;;;;3.42;1.50;;;;;;;;;;5095545;28;20089;-31
2023/08/03 05:51:28;;;;;;;2.85;1.83;;;;;;;;;;5095294;28;20413;-31
2023/08/03 05:53:55;;;;;;;2.15;1.65;;;;;;;;;;5095400;28;20048;-29
2023/08/03 05:56:22;;;;;;;3.00;1.27;;;;;;;;;;5095717;28;20027;-30
2023/08/03 05:58:52;;;;;;;3.00;1.65;;;;;;;;;;5095336;28;20032;-31
2023/08/03 06:03:54;;;;;;;2.80;1.95;;;;;;;;;;5181315;22;20137;-25
2023/08/03 06:06:21;;;;;;;1.70;1.60;;;;;;;;;;5094923;28;20024;-24
2023/08/03 06:08:48;;;;;;;5.25;1.27;;;;;;;;;;5094996;28;20038;-27
2023/08/03 06:11:16;;;;;;;6.05;1.98;;;;;;;;;;5094948;28;20028;-27
2023/08/03 06:13:42;;;;;;;2.63;1.45;;;;;;;;;;5094896;28;20031;-28
2023/08/03 06:16:10;;;;;;;2.75;1.67;;;;;;;;;;5095160;28;20350;-28
2023/08/03 06:18:47;;;;;;;4.43;1.83;;;;;;;;;;5095123;28;20031;-28
2023/08/03 06:21:14;;;;;;;3.88;1.90;;;;;;;;;;5095254;28;20020;-27
2023/08/03 06:23:41;;;;;;;3.63;2.03;;;;;;;;;;5094829;28;20023;-25
2023/08/03 06:26:11;;;;;;;3.25;1.50;;;;;;;;;;5094856;28;20028;-26
2023/08/03 06:28:37;;;;;;;3.13;1.85;;;;;;;;;;5095113;28;20078;-25
2023/08/03 06:31:10;;;;;;;2.60;1.65;;;;;;;;;;5094760;28;20020;-24
2023/08/03 06:33:38;;;;;;;3.90;1.98;;;;;;;;;;5094915;28;20510;-25
2023/08/03 06:36:05;;;;;;;4.03;2.35;;;;;;;;;;5094688;28;20028;-26
2023/08/03 06:38:32;;;;;;;4.07;2.20;;;;;;;;;;5093725;28;20028;-28
2023/08/03 06:40:59;;;;;;;8.05;1.83;;;;;;;;;;5094649;28;20020;-26
2023/08/03 06:43:25;;;;;;;2.33;1.60;;;;;;;;;;5094351;28;20024;-28
2023/08/03 06:45:51;;;;;;;3.63;1.42;;;;;;;;;;5095106;28;20069;-27
2023/08/03 06:48:17;;;;;;;3.83;2.45;;;;;;;;;;5094565;28;20053;-24
2023/08/03 06:50:44;;;;;;;4.50;1.85;;;;;;;;;;5093576;28;20035;-27
2023/08/03 06:53:10;;;;;;;3.92;2.10;;;;;;;;;;5094764;28;20109;-25
2023/08/03 06:55:36;;;;;;;4.45;1.83;;;;;;;;;;5093556;28;20048;-27
2023/08/03 06:58:03;;;;;;;2.15;1.67;;;;;;;;;;5094482;28;20028;-27
2023/08/03 07:00:29;;;;;;;7.32;2.28;;;;;;;;;;5095393;28;20035;-25
2023/08/03 07:02:56;;;;;;;4.32;1.85;;;;;;;;;;5094156;28;20040;-28
2023/08/03 07:05:22;;;;;;;4.80;1.92;;;;;;;;;;5094768;28;20397;-25
2023/08/03 07:07:49;;;;;;;5.28;2.00;;;;;;;;;;5094705;28;20016;-27
2023/08/03 07:10:15;;;;;;;4.88;2.05;;;;;;;;;;5094789;28;20024;-27
2023/08/03 07:12:42;;;;;;;10.15;2.20;;;;;;;;;;5094417;28;20032;-26
2023/08/03 07:15:08;;;;;;;4.03;2.10;;;;;;;;;;5094533;28;20084;-27
2023/08/03 07:17:35;;;;;;;7.75;1.90;;;;;;;;;;5098552;28;20024;-28
2023/08/03 07:20:01;;;;;;;5.90;1.70;;;;;;;;;;5098288;28;20082;-24
2023/08/03 07:22:27;;;;;;;5.22;1.52;;;;;;;;;;5098064;28;20358;-24
2023/08/03 07:24:53;;;;;;;7.03;2.40;;;;;;;;;;5098285;28;20418;-25
2023/08/03 07:27:19;;;;;;;5.88;1.90;;;;;;;;;;5098241;28;20347;-27
2023/08/03 07:29:46;;;;;;;1.92;1.40;;;;;;;;;;5098264;28;20039;-24
2023/08/03 07:32:12;;;;;;;3.13;1.73;;;;;;;;;;5096796;28;20124;-25
2023/08/03 07:34:38;;;;;;;3.95;2.13;;;;;;;;;;5098207;28;20044;-28
2023/08/03 07:37:05;;;;;;;4.82;1.63;;;;;;;;;;5098008;28;20403;-27
2023/08/03 07:39:32;;;;;;;5.10;2.28;;;;;;;;;;5097783;28;20047;-26
2023/08/03 07:41:58;;;;;;;6.40;2.15;;;;;;;;;;5097674;28;20022;-23
2023/08/03 07:44:24;;;;;;;7.45;2.45;;;;;;;;;;5097940;28;20098;-25
2023/08/03 07:46:50;;;;;;;9.13;1.90;;;;;;;;;;5097670;28;20031;-25
2023/08/03 07:49:17;;;;;;;3.63;1.77;;;;;;;;;;5096490;28;20048;-24
2023/08/03 07:51:44;;;;;;;7.88;1.70;;;;;;;;;;5097213;28;20032;-25
2023/08/03 07:54:10;;;;;;;2.78;2.40;;;;;;;;;;5097615;28;20083;-26
2023/08/03 07:56:36;;;;;;;7.47;2.20;;;;;;;;;;5097477;28;20039;-26
2023/08/03 07:59:04;;;;;;;9.63;2.13;;;;;;;;;;5097300;28;20032;-28
2023/08/03 08:01:31;;;;;;;2.95;1.70;;;;;;;;;;5097291;28;20039;-24
2023/08/03 08:03:57;;;;;;;3.03;1.45;;;;;;;;;;5097226;28;20048;-26
2023/08/03 08:06:23;;;;;;;3.40;1.80;;;;;;;;;;5097511;28;20326;-27
2023/08/03 08:08:50;;;;;;;4.40;2.40;;;;;;;;;;5097399;28;20308;-28
2023/08/03 08:11:17;;;;;;;29.83;3.47;;;;;;;;;;5097092;28;20020;-26
2023/08/03 08:13:43;;;;;;;9.18;2.97;;;;;;;;;;5096997;28;20024;-28
2023/08/03 08:16:10;;;;;;;5.63;2.40;;;;;;;;;;5096136;28;20032;-27
2023/08/03 08:18:37;;;;;;;7.22;2.42;;;;;;;;;;5095984;28;20446;-26
2023/08/03 08:21:07;;;;;;;10.40;2.30;;;;;;;;;;5096689;28;20450;-25
2023/08/03 08:23:34;;;;;;;7.13;1.90;;;;;;;;;;5097070;28;20016;-25
2023/08/03 08:26:00;;;;;;;5.30;2.22;;;;;;;;;;5097057;28;20385;-26
2023/08/03 08:28:27;;;;;;;8.48;1.90;;;;;;;;;;5096677;28;20017;-25
2023/08/03 08:30:53;;;;;;;2.80;1.80;;;;;;;;;;5096583;28;20039;-23
2023/08/03 08:33:19;;;;;;;4.75;1.67;;;;;;;;;;5095625;28;20460;-23
2023/08/03 08:35:46;;;;;;;5.03;1.80;;;;;;;;;;5096578;28;20108;-26
2023/08/03 08:38:13;;;;;;;6.45;1.83;;;;;;;;;;5096727;28;20052;-23
2023/08/03 08:40:40;;;;;;;10.65;2.75;;;;;;;;;;5096313;28;20039;-27
2023/08/03 08:43:06;;;;;;;4.45;2.13;;;;;;;;;;5096243;28;20020;-28
2023/08/03 08:45:33;;;;;;;10.93;2.00;;;;;;;;;;5096529;28;20067;-28
2023/08/03 08:47:59;;;;;;;8.18;2.58;;;;;;;;;;5096273;28;20439;-27
2023/08/03 08:50:26;;;;;;;8.13;1.88;;;;;;;;;;5096199;28;20023;-28
2023/08/03 08:52:52;;;;;;;6.47;1.95;;;;;;;;;;5096090;28;20036;-27
2023/08/03 08:55:20;;;;;;;3.85;1.70;;;;;;;;;;5096111;28;20035;-27
2023/08/03 08:57:47;;;;;;;2.28;1.45;;;;;;;;;;5096088;28;20368;-28
2023/08/03 09:00:14;;;;;;;6.15;1.80;;;;;;;;;;5095981;28;20455;-26
2023/08/03 09:02:40;;;;;;;6.13;2.50;;;;;;;;;;5095716;28;20061;-27
2023/08/03 09:05:16;;;;;;;6.50;2.47;;;;;;;;;;5096186;28;20020;-26
2023/08/03 09:07:42;;;;;;;6.72;2.25;;;;;;;;;;5095859;28;20111;-27
2023/08/03 09:10:09;;;;;;;8.32;2.17;;;;;;;;;;5096075;28;20028;-27
2023/08/03 09:12:37;;;;;;;3.28;1.83;;;;;;;;;;5094822;28;20101;-26
2023/08/03 09:15:03;;;;;;;3.80;2.13;;;;;;;;;;5096076;28;20035;-22
2023/08/03 09:17:30;;;;;;;2.05;1.33;;;;;;;;;;5095946;28;20024;-27
2023/08/03 09:19:56;;;;;;;5.45;1.70;;;;;;;;;;5095862;28;20039;-24
2023/08/03 09:22:23;;;;;;;2.88;1.60;;;;;;;;;;5095557;28;20077;-24
2023/08/03 09:25:05;;;;;;;5.97;1.30;;;;;;;;;;5095586;28;20020;-27
2023/08/03 09:27:31;;;;;;;6.32;2.60;;;;;;;;;;5095583;28;20023;-26
2023/08/03 09:30:00;;;;;;;3.42;1.70;;;;;;;;;;5095579;28;20039;-27
2023/08/03 09:32:34;;;;;;;2.97;1.67;;;;;;;;;;5095605;28;20024;-24
2023/08/03 09:35:03;;;;;;;2.38;1.48;;;;;;;;;;5095671;28;20052;-27
2023/08/03 09:37:33;;;;;;;5.47;1.70;;;;;;;;;;5095928;28;20094;-28
2023/08/03 09:40:03;;;;;;;7.05;1.67;;;;;;;;;;5095847;28;20031;-27
2023/08/03 09:42:31;;;;;;;5.07;1.90;;;;;;;;;;5095523;28;20012;-27
2023/08/03 09:45:01;;;;;;;5.00;2.05;;;;;;;;;;5095315;28;20375;-27
2023/08/03 09:47:27;;;;;;;5.07;1.60;;;;;;;;;;5095387;28;20028;-27
2023/08/03 09:49:53;;;;;;;5.45;1.70;;;;;;;;;;5095130;28;20020;-25
2023/08/03 09:52:25;;;;;;;2.40;1.58;;;;;;;;;;5094225;28;20032;-29
2023/08/03 09:55:06;;;;;;;5.10;2.00;;;;;;;;;;5095500;28;20024;-29
2023/08/03 09:57:38;;;;;;;15.93;2.95;;;;;;;;;;5095098;28;20107;-30
2023/08/03 10:00:06;;;;;;;12.88;2.70;;;;;;;;;;5093979;28;20036;-29
2023/08/03 10:02:35;;;;;;;12.90;2.55;;;;;;;;;;5094567;28;20028;-31
2023/08/03 10:05:03;;;;;;;9.18;2.38;;;;;;;;;;5094824;28;20024;-26
2023/08/03 10:07:31;;;;;;;9.10;2.45;;;;;;;;;;5095175;28;20016;-26
2023/08/03 10:09:59;;;;;;;6.10;2.47;;;;;;;;;;5094958;28;20450;-28
2023/08/03 10:12:30;;;;;;;9.85;3.53;;;;;;;;;;5094799;28;20031;-26
2023/08/03 10:14:58;;;;;;;16.27;2.15;;;;;;;;;;5093869;28;20528;-27
2023/08/03 10:17:25;;;;;;;7.30;1.73;;;;;;;;;;5094824;28;20129;-27
2023/08/03 10:19:52;;;;;;;6.22;2.58;;;;;;;;;;5094699;28;20028;-28
2023/08/03 10:22:18;;;;;;;8.13;2.50;;;;;;;;;;5093520;28;20031;-24
2023/08/03 10:25:03;;;;;;;15.15;2.72;;;;;;;;;;5094620;28;20020;-27
2023/08/03 10:27:29;;;;;;;5.35;1.83;;;;;;;;;;5094992;28;20161;-26
2023/08/03 10:29:58;;;;;;;8.82;2.35;;;;;;;;;;5094437;28;20052;-25
2023/08/03 10:32:25;;;;;;;9.18;2.10;;;;;;;;;;5094620;28;20028;-28
2023/08/03 10:34:52;;;;;;;4.88;2.08;;;;;;;;;;5094578;28;20020;-25
2023/08/03 10:37:20;;;;;;;18.98;2.85;;;;;;;;;;5094777;28;20024;-27
2023/08/03 10:39:49;;;;;;;16.58;3.67;;;;;;;;;;5094361;28;20034;-26
2023/08/03 10:42:35;;;;;;;10.13;2.45;;;;;;;;;;5093357;28;20359;-24
2023/08/03 10:45:20;;;;;;;8.10;2.00;;;;;;;;;;5094803;28;20357;-25
2023/08/03 10:47:46;;;;;;;5.10;1.85;;;;;;;;;;5094604;28;20074;-25
2023/08/03 10:50:12;;;;;;;6.43;2.00;;;;;;;;;;5094887;28;20447;-27
2023/08/03 10:52:38;;;;;;;2.78;1.50;;;;;;;;;;5098410;28;20340;-26
2023/08/03 10:55:21;;;;;;;5.75;1.55;;;;;;;;;;5098531;28;20481;-27
2023/08/03 10:57:47;;;;;;;3.75;1.80;;;;;;;;;;5098748;28;20028;-27
2023/08/03 11:00:13;;;;;;;10.23;2.05;;;;;;;;;;5098261;28;20035;-27
2023/08/03 11:02:42;;;;;;;7.05;2.22;;;;;;;;;;5098242;28;20419;-26
2023/08/03 11:05:11;;;;;;;2.83;1.83;;;;;;;;;;5098765;28;20028;-26
2023/08/03 11:07:38;;;;;;;5.90;1.60;;;;;;;;;;5098551;28;20435;-25
2023/08/03 11:10:06;;;;;;;2.88;1.52;;;;;;;;;;5098205;28;20099;-25
2023/08/03 11:12:32;;;;;;;13.55;3.70;;;;;;;;;;5098655;28;20370;-26
2023/08/03 11:15:01;;;;;;;11.48;2.38;;;;;;;;;;5097454;28;20039;-25
2023/08/03 11:17:29;;;;;;;6.68;1.90;;;;;;;;;;5098253;28;20020;-27
2023/08/03 11:19:55;;;;;;;8.38;1.73;;;;;;;;;;5097106;28;20115;-26
2023/08/03 11:22:22;;;;;;;6.50;1.80;;;;;;;;;;5098203;28;20031;-27
2023/08/03 11:24:54;;;;;;;8.30;2.35;;;;;;;;;;5098121;28;20024;-27
2023/08/03 11:27:20;;;;;;;14.02;1.70;;;;;;;;;;5098331;28;20446;-26
2023/08/03 11:29:46;;;;;;;6.80;2.60;;;;;;;;;;5098418;28;20024;-27
2023/08/03 11:32:20;;;;;;;5.50;2.42;;;;;;;;;;5097786;28;20203;-25
2023/08/03 11:34:47;;;;;;;3.03;1.77;;;;;;;;;;5098057;28;20023;-23
2023/08/03 11:37:14;;;;;;;6.63;1.95;;;;;;;;;;5096933;28;20103;-24
2023/08/03 11:39:40;;;;;;;11.13;1.95;;;;;;;;;;5098028;28;20101;-25
2023/08/03 11:42:07;;;;;;;7.53;1.83;;;;;;;;;;5097620;28;20044;-26
2023/08/03 11:44:40;;;;;;;5.65;2.13;;;;;;;;;;5097582;28;20388;-25
2023/08/03 11:47:07;;;;;;;9.35;3.17;;;;;;;;;;5097944;28;20024;-24
2023/08/03 11:49:34;;;;;;;6.63;1.92;;;;;;;;;;5097950;28;20034;-26
2023/08/03 11:52:01;;;;;;;6.50;1.73;;;;;;;;;;5097745;28;20339;-25
2023/08/03 11:54:29;;;;;;;7.25;2.13;;;;;;;;;;5097910;28;20503;-24
2023/08/03 11:58:07;;;;;;;15.57;2.38;;;;;;;;;;5097247;28;20036;-24
2023/08/03 11:59:42;;;;;;;7.13;1.98;;;;;;;;;;5097218;28;20058;-27
2023/08/03 12:02:08;;;;;;;6.90;2.00;;;;;;;;;;5096646;28;20074;-26
2023/08/03 12:04:34;;;;;;;8.90;2.15;;;;;;;;;;5097150;28;20047;-28
2023/08/03 12:07:02;;;;;;;4.15;1.50;;;;;;;;;;5096240;28;20019;-25
2023/08/03 12:09:29;;;;;;;11.32;2.08;;;;;;;;;;5097340;28;20080;-26
2023/08/03 12:12:04;;;;;;;6.20;1.75;;;;;;;;;;5096210;28;20028;-27
2023/08/03 12:14:31;;;;;;;7.35;1.58;;;;;;;;;;5097297;28;20035;-23
2023/08/03 12:16:57;;;;;;;9.45;3.15;;;;;;;;;;5097192;28;20351;-24
2023/08/03 12:19:27;;;;;;;8.02;1.73;;;;;;;;;;5096784;28;20042;-27
2023/08/03 12:21:54;;;;;;;6.47;2.25;;;;;;;;;;5097136;28;20023;-25
2023/08/03 12:24:20;;;;;;;7.20;2.25;;;;;;;;;;5097158;28;20504;-27
2023/08/03 12:26:46;;;;;;;15.38;3.25;;;;;;;;;;5096940;28;20354;-26
2023/08/03 12:29:13;;;;;;;13.77;2.17;;;;;;;;;;5097213;28;20456;-26
2023/08/03 12:31:39;;;;;;;10.30;2.05;;;;;;;;;;5097294;28;20046;-25
2023/08/03 12:34:05;;;;;;;4.85;1.48;;;;;;;;;;5096747;28;20024;-26
2023/08/03 12:36:31;;;;;;;8.68;1.67;;;;;;;;;;5096859;28;20397;-24
2023/08/03 12:41:34;;;;;;;10.20;1.75;;;;;;;;;;5126834;22;20143;-24
2023/08/03 12:44:00;;;;;;;5.68;1.63;;;;;;;;;;5076297;28;20025;-26
2023/08/03 12:46:26;;;;;;;4.22;1.35;;;;;;;;;;5076224;28;20078;-26
2023/08/03 12:48:52;;;;;;;5.85;2.05;;;;;;;;;;5058529;28;20141;-23
2023/08/03 12:51:18;;;;;;;13.88;2.42;;;;;;;;;;5076159;28;20033;-26
2023/08/03 12:53:46;;;;;;;8.20;1.88;;;;;;;;;;5076285;28;20059;-28
2023/08/03 12:56:12;;;;;;;4.60;1.75;;;;;;;;;;5076203;28;20108;-26
2023/08/03 12:58:38;;;;;;;5.03;1.70;;;;;;;;;;5076423;28;20051;-25
2023/08/03 13:01:05;;;;;;;4.90;1.98;;;;;;;;;;5075978;28;20031;-28
2023/08/03 13:03:31;;;;;;;4.13;1.88;;;;;;;;;;5058395;28;20054;-28
2023/08/03 13:05:57;;;;;;;2.58;1.55;;;;;;;;;;5076006;28;20024;-25
2023/08/03 13:08:23;;;;;;;7.80;1.88;;;;;;;;;;5075937;28;20016;-28
2023/08/03 13:10:50;;;;;;;4.10;2.20;;;;;;;;;;5058193;28;20028;-27
2023/08/03 13:13:18;;;;;;;1.83;1.40;;;;;;;;;;5074884;28;20044;-23
2023/08/03 13:15:44;;;;;;;6.90;2.03;;;;;;;;;;5075646;28;20458;-26
2023/08/03 13:18:11;;;;;;;3.67;1.40;;;;;;;;;;5075904;28;20156;-27
2023/08/03 13:20:37;;;;;;;6.45;1.88;;;;;;;;;;5075443;28;20024;-25
2023/08/03 13:23:03;;;;;;;5.55;2.00;;;;;;;;;;5076114;28;20098;-26
2023/08/03 13:25:29;;;;;;;7.35;1.50;;;;;;;;;;5075595;28;20088;-26
2023/08/03 13:27:56;;;;;;;9.50;2.05;;;;;;;;;;5075821;28;20135;-25
2023/08/03 13:30:22;;;;;;;5.72;1.98;;;;;;;;;;5058077;28;20104;-24
2023/08/03 13:32:48;;;;;;;4.82;1.92;;;;;;;;;;5075565;28;20104;-25
2023/08/03 13:35:15;;;;;;;3.63;1.90;;;;;;;;;;5075742;28;20039;-27
2023/08/03 13:37:41;;;;;;;5.60;2.75;;;;;;;;;;5075357;28;20059;-27
2023/08/03 13:40:10;;;;;;;4.45;1.60;;;;;;;;;;5075167;28;20085;-27
2023/08/03 13:42:36;;;;;;;5.25;2.00;;;;;;;;;;5075549;28;20446;-27
2023/08/03 13:45:03;;;;;;;3.35;1.70;;;;;;;;;;5075412;28;20021;-27
2023/08/03 13:47:29;;;;;;;4.85;2.22;;;;;;;;;;5075196;28;20031;-28
2023/08/03 13:49:55;;;;;;;8.02;2.42;;;;;;;;;;5075062;28;20051;-28
2023/08/03 13:52:21;;;;;;;4.78;1.60;;;;;;;;;;5075362;28;20036;-27
2023/08/03 13:54:47;;;;;;;7.97;1.65;;;;;;;;;;5075156;28;20020;-27
2023/08/03 13:57:15;;;;;;;5.45;2.33;;;;;;;;;;5074841;28;20040;-30
2023/08/03 13:59:42;;;;;;;5.10;2.35;;;;;;;;;;5057189;28;20068;-29
2023/08/03 14:02:11;;;;;;;9.65;2.03;;;;;;;;;;5057174;28;20039;-28
2023/08/03 14:04:37;;;;;;;3.45;1.88;;;;;;;;;;5074889;28;20103;-27
2023/08/03 14:07:04;;;;;;;4.53;2.15;;;;;;;;;;5074737;28;20133;-27
2023/08/03 14:09:30;;;;;;;6.22;1.90;;;;;;;;;;5074607;28;20062;-27
2023/08/03 14:11:56;;;;;;;7.35;2.13;;;;;;;;;;5057037;28;20035;-27
2023/08/03 14:14:23;;;;;;;5.55;2.05;;;;;;;;;;5074710;28;20035;-27
2023/08/03 14:16:49;;;;;;;5.60;2.00;;;;;;;;;;5074758;28;20104;-27
2023/08/03 14:19:16;;;;;;;3.97;2.10;;;;;;;;;;5056752;28;20039;-27
2023/08/03 14:21:43;;;;;;;4.28;1.88;;;;;;;;;;5074561;28;20020;-27
2023/08/03 14:24:09;;;;;;;4.95;2.08;;;;;;;;;;5074244;28;20039;-35
2023/08/03 14:26:36;;;;;;;8.13;2.30;;;;;;;;;;5074638;28;20028;-28
2023/08/03 14:29:02;;;;;;;4.00;1.67;;;;;;;;;;5074632;28;20056;-28
2023/08/03 14:31:28;;;;;;;4.57;2.22;;;;;;;;;;5074589;28;20021;-28
2023/08/03 14:33:54;;;;;;;4.97;1.92;;;;;;;;;;5074884;28;20453;-28
2023/08/03 14:36:20;;;;;;;8.43;2.35;;;;;;;;;;5074594;28;20024;-28
2023/08/03 14:38:46;;;;;;;3.35;1.80;;;;;;;;;;5074818;28;20034;-28
2023/08/03 14:41:17;;;;;;;5.68;1.75;;;;;;;;;;5074490;28;20048;-28
2023/08/03 14:43:44;;;;;;;5.05;1.60;;;;;;;;;;5074530;28;20032;-28
2023/08/03 14:46:13;;;;;;;4.05;1.75;;;;;;;;;;5074499;28;20020;-28